Time;durP1;ratioP1;P1;durP2;ratioP2;P2;SDS_P1;SDS_P2;PMS_P1;PMS_P2;Temp;Humidity;BMP_temperature;BMP_pressure;BME280_temperature;BME280_humidity;BME280_pressure;Samples;Min_cycle;Max_cycle;Signal;HPM_P1;HPM_P2
2022/09/19 00:00:46;;;;;;;17.03;2.63;;;13.40;1.00;;;;;;5036265;28;20220;-77
2022/09/19 00:03:13;;;;;;;9.77;2.10;;;13.40;1.00;;;;;;5036667;28;20500;-77
2022/09/19 00:05:41;;;;;;;12.13;2.20;;;13.40;1.00;;;;;;5036585;28;20206;-77
2022/09/19 00:08:08;;;;;;;6.77;1.53;;;13.40;1.00;;;;;;5035766;28;20191;-77
2022/09/19 00:10:40;;;;;;;6.33;1.90;;;13.40;37.90;;;;;;5036008;28;20221;-77
2022/09/19 00:13:09;;;;;;;18.60;2.03;;;13.40;1.00;;;;;;5036647;28;20229;-77
2022/09/19 00:15:37;;;;;;;6.13;1.50;;;13.40;1.00;;;;;;5036280;28;20230;-77
2022/09/19 00:18:04;;;;;;;6.70;1.50;;;13.40;1.00;;;;;;5036212;28;20713;-77
2022/09/19 00:20:33;;;;;;;9.40;1.90;;;13.40;1.00;;;;;;5035642;28;20206;-77
2022/09/19 00:25:44;;;;;;;11.47;1.70;;;13.50;1.00;;;;;;5036409;28;20194;-76
2022/09/19 00:28:12;;;;;;;8.87;2.70;;;13.50;1.00;;;;;;5035574;28;20215;-77
2022/09/19 00:30:39;;;;;;;5.97;1.53;;;13.50;99.90;;;;;;5036074;28;20232;-76
2022/09/19 00:33:06;;;;;;;8.20;1.70;;;13.50;1.00;;;;;;5035945;28;20520;-78
2022/09/19 00:35:33;;;;;;;10.37;1.80;;;13.40;99.90;;;;;;5035547;28;20203;-77
2022/09/19 00:38:00;;;;;;;8.77;2.07;;;13.40;1.00;;;;;;5035158;28;20206;-77
2022/09/19 00:40:27;;;;;;;6.33;1.50;;;13.50;1.00;;;;;;5035792;28;20491;-77
2022/09/19 00:42:54;;;;;;;9.93;1.90;;;13.60;99.90;;;;;;5037254;28;20206;-78
2022/09/19 00:45:22;;;;;;;11.80;2.03;;;13.70;99.90;;;;;;5045606;28;20305;-76
2022/09/19 00:47:53;;;;;;;10.20;2.13;;;13.60;1.00;;;;;;5036204;28;20203;-79
2022/09/19 00:50:22;;;;;;;7.10;1.90;;;13.70;1.00;;;;;;5035466;28;20210;-77
2022/09/19 00:52:53;;;;;;;10.97;2.07;;;13.80;1.00;;;;;;5035955;28;20202;-78
2022/09/19 00:55:21;;;;;;;9.97;2.07;;;13.80;1.00;;;;;;5035784;28;20201;-78
2022/09/19 00:57:59;;;;;;;6.40;1.43;;;13.80;1.00;;;;;;5034842;28;20210;-78
2022/09/19 01:00:28;;;;;;;9.47;1.90;;;13.80;99.90;;;;;;5035354;28;20598;-78
2022/09/19 01:02:55;;;;;;;10.07;2.00;;;13.90;1.00;;;;;;5035026;28;20206;-77
2022/09/19 01:05:28;;;;;;;7.57;1.73;;;13.90;1.00;;;;;;5035436;28;20578;-77
2022/09/19 01:08:17;;;;;;;10.53;2.30;;;14.00;1.00;;;;;;5036042;28;20191;-77
2022/09/19 01:11:03;;;;;;;10.23;2.60;;;14.00;1.00;;;;;;5034187;28;20214;-78
2022/09/19 01:13:38;;;;;;;9.30;2.00;;;14.10;99.90;;;;;;5035483;28;20214;-78
2022/09/19 01:16:10;;;;;;;8.30;2.03;;;14.10;99.90;;;;;;5035199;28;20590;-77
2022/09/19 01:18:42;;;;;;;6.13;1.77;;;14.10;99.90;;;;;;5034532;28;20206;-78
2022/09/19 01:21:41;;;;;;;10.23;1.80;;;14.20;1.00;;;;;;5035094;28;20210;-77
2022/09/19 01:24:44;;;;;;;7.13;1.63;;;14.20;99.90;;;;;;5034554;28;20199;-77
2022/09/19 01:27:26;;;;;;;10.27;1.90;;;14.20;1.00;;;;;;5034490;28;20668;-78
2022/09/19 01:30:01;;;;;;;10.17;2.10;;;14.20;1.00;;;;;;5035106;28;20226;-77
2022/09/19 01:32:33;;;;;;;9.70;2.33;;;14.20;1.00;;;;;;5034399;28;20209;-77
2022/09/19 01:35:04;;;;;;;7.33;1.73;;;14.10;1.00;;;;;;5034937;28;20250;-78
2022/09/19 01:37:36;;;;;;;7.97;1.97;;;14.20;1.00;;;;;;5034723;28;20202;-78
2022/09/19 01:40:06;;;;;;;7.57;1.90;;;14.30;1.00;;;;;;5034614;28;20190;-78
2022/09/19 01:42:33;;;;;;;8.87;2.47;;;14.30;1.00;;;;;;5034768;28;20510;-77
2022/09/19 01:45:01;;;;;;;12.70;2.17;;;14.20;1.00;;;;;;5033895;28;20211;-77
2022/09/19 01:47:40;;;;;;;10.03;2.20;;;14.30;1.00;;;;;;5034841;28;20610;-76
2022/09/19 01:50:13;;;;;;;11.87;2.10;;;14.30;1.00;;;;;;5034339;28;20197;-77
2022/09/19 01:52:50;;;;;;;10.73;2.37;;;14.30;1.00;;;;;;5034231;28;20202;-77
2022/09/19 01:55:24;;;;;;;11.67;2.23;;;14.30;99.90;;;;;;5034528;28;20649;-77
2022/09/19 01:58:00;;;;;;;10.73;1.90;;;14.30;99.90;;;;;;5034362;28;20207;-76
2022/09/19 02:00:28;;;;;;;9.87;1.70;;;14.30;1.00;;;;;;5033823;28;20206;-76
2022/09/19 02:03:11;;;;;;;11.40;2.93;;;14.30;25.60;;;;;;5034308;28;20198;-75
2022/09/19 02:05:49;;;;;;;10.23;2.00;;;14.30;1.00;;;;;;5034185;28;20206;-76
2022/09/19 02:08:21;;;;;;;7.53;2.30;;;14.40;99.90;;;;;;5034404;28;20198;-77
2022/09/19 02:10:54;;;;;;;7.43;1.90;;;14.40;99.90;;;;;;5034232;28;20204;-76
2022/09/19 02:13:24;;;;;;;8.83;2.10;;;14.40;1.00;;;;;;5033514;28;20552;-76
2022/09/19 02:15:57;;;;;;;13.30;2.40;;;14.40;95.00;;;;;;5034544;28;20202;-77
2022/09/19 02:18:30;;;;;;;6.87;1.83;;;14.50;99.90;;;;;;5038976;28;20583;-77
2022/09/19 02:21:03;;;;;;;8.90;2.10;;;14.50;99.90;;;;;;5040346;28;20217;-76
2022/09/19 02:23:33;;;;;;;13.70;2.30;;;14.50;1.00;;;;;;5034114;28;20205;-77
2022/09/19 02:26:05;;;;;;;7.90;2.13;;;14.60;99.90;;;;;;5034417;28;20198;-78
2022/09/19 02:28:38;;;;;;;10.60;2.47;;;14.60;99.90;;;;;;5033491;28;20307;-77
2022/09/19 02:31:07;;;;;;;8.37;1.80;;;14.60;1.00;;;;;;5033682;28;20285;-77
2022/09/19 02:33:35;;;;;;;11.57;2.20;;;14.60;1.00;;;;;;5033263;28;20302;-76
2022/09/19 02:36:15;;;;;;;8.73;2.20;;;14.60;99.90;;;;;;5033508;28;20198;-77
2022/09/19 02:38:49;;;;;;;6.13;2.27;;;14.50;1.00;;;;;;5033861;28;20191;-77
2022/09/19 02:41:22;;;;;;;11.90;2.47;;;14.50;1.00;;;;;;5032785;28;20289;-76
2022/09/19 02:43:53;;;;;;;7.90;1.90;;;14.50;99.90;;;;;;5033980;28;20183;-76
2022/09/19 02:46:30;;;;;;;9.87;2.27;;;14.50;1.00;;;;;;5053252;28;20512;-76
2022/09/19 02:49:06;;;;;;;10.67;1.80;;;14.50;1.00;;;;;;5053306;28;20217;-77
2022/09/19 02:51:38;;;;;;;11.73;2.37;;;14.50;99.90;;;;;;5053804;28;20190;-76
2022/09/19 02:54:09;;;;;;;8.03;1.63;;;14.60;99.90;;;;;;5042547;28;20219;-76
2022/09/19 02:56:38;;;;;;;9.47;2.00;;;14.60;99.90;;;;;;5032700;28;20202;-76
2022/09/19 02:59:08;;;;;;;11.20;2.40;;;14.50;1.00;;;;;;5033903;28;20226;-76
2022/09/19 03:01:38;;;;;;;14.00;2.30;;;14.50;99.90;;;;;;5032900;28;20244;-75
2022/09/19 03:04:14;;;;;;;10.30;1.70;;;14.50;1.00;;;;;;5032770;28;20191;-76
2022/09/19 03:06:50;;;;;;;9.40;2.30;;;14.50;1.00;;;;;;5032968;28;20301;-76
2022/09/19 03:09:21;;;;;;;12.37;2.83;;;14.50;99.90;;;;;;5032636;28;20594;-77
2022/09/19 03:11:54;;;;;;;8.80;2.47;;;14.50;99.90;;;;;;5033266;28;20282;-75
2022/09/19 03:14:22;;;;;;;7.63;1.87;;;14.60;1.00;;;;;;5033697;28;20215;-76
2022/09/19 03:16:56;;;;;;;9.90;1.80;;;14.60;99.90;;;;;;5032456;28;20229;-76
2022/09/19 03:19:24;;;;;;;5.80;1.40;;;14.60;1.00;;;;;;5033394;28;20579;-75
2022/09/19 03:21:54;;;;;;;7.87;2.40;;;14.60;1.00;;;;;;5033554;28;20202;-76
2022/09/19 03:24:21;;;;;;;9.60;1.90;;;14.50;1.00;;;;;;5032816;28;20198;-76
2022/09/19 03:26:48;;;;;;;7.73;1.40;;;14.50;1.00;;;;;;5034072;28;20221;-76
2022/09/19 03:29:16;;;;;;;6.73;1.50;;;14.60;1.00;;;;;;5052737;28;20263;-76
2022/09/19 03:31:43;;;;;;;14.03;2.23;;;14.60;1.00;;;;;;5037178;28;20292;-76
2022/09/19 03:34:12;;;;;;;8.30;1.80;;;14.50;1.00;;;;;;5033065;28;20250;-76
2022/09/19 03:36:40;;;;;;;9.30;2.20;;;14.50;99.90;;;;;;5032949;28;20197;-76
2022/09/19 03:39:08;;;;;;;4.93;1.53;;;14.60;99.90;;;;;;5032339;28;20206;-76
2022/09/19 03:41:38;;;;;;;5.70;1.50;;;14.60;1.00;;;;;;5033696;28;20206;-77
2022/09/19 03:44:05;;;;;;;9.07;1.40;;;14.60;1.00;;;;;;5033076;28;20206;-77
2022/09/19 03:46:33;;;;;;;8.33;2.20;;;14.70;99.90;;;;;;5032169;28;20210;-77
2022/09/19 03:49:02;;;;;;;7.40;1.50;;;14.70;36.50;;;;;;5033286;28;20557;-76
2022/09/19 03:51:31;;;;;;;10.83;1.97;;;14.70;1.00;;;;;;5032439;28;20209;-76
2022/09/19 03:53:58;;;;;;;11.07;2.00;;;14.60;1.00;;;;;;5032898;28;20206;-77
2022/09/19 03:56:26;;;;;;;5.30;1.80;;;14.50;1.00;;;;;;5032920;28;20197;-78
2022/09/19 03:58:53;;;;;;;9.13;1.87;;;14.50;1.00;;;;;;5032295;28;20210;-77
2022/09/19 04:01:20;;;;;;;11.60;2.10;;;14.40;21.40;;;;;;5032764;28;20199;-77
2022/09/19 04:03:47;;;;;;;7.93;2.20;;;14.40;54.20;;;;;;5032760;28;20207;-77
2022/09/19 04:06:14;;;;;;;11.77;1.97;;;14.40;58.20;;;;;;5032667;28;20198;-77
2022/09/19 04:08:42;;;;;;;11.00;1.90;;;14.30;93.70;;;;;;5032510;28;20203;-77
2022/09/19 04:11:09;;;;;;;12.73;2.10;;;14.30;98.80;;;;;;5032564;28;20195;-77
2022/09/19 04:13:37;;;;;;;10.27;2.00;;;14.20;94.20;;;;;;5034733;28;20229;-77
2022/09/19 04:16:05;;;;;;;7.40;1.50;;;14.20;97.70;;;;;;5036131;28;20237;-78
2022/09/19 04:18:34;;;;;;;12.50;2.40;;;14.20;99.90;;;;;;5036045;28;20289;-77
2022/09/19 04:21:01;;;;;;;17.37;2.10;;;14.10;99.90;;;;;;5036016;28;20214;-75
2022/09/19 04:23:28;;;;;;;14.60;2.37;;;14.00;99.90;;;;;;5036189;28;20206;-77
2022/09/19 04:25:57;;;;;;;8.43;1.87;;;14.00;99.90;;;;;;5036237;28;20195;-77
2022/09/19 04:28:24;;;;;;;15.90;2.10;;;14.00;99.90;;;;;;5035518;28;20280;-77
2022/09/19 04:30:51;;;;;;;7.83;1.70;;;13.90;98.40;;;;;;5036197;28;20229;-76
2022/09/19 04:33:20;;;;;;;8.63;2.00;;;13.90;8.00;;;;;;5036669;28;20245;-77
2022/09/19 04:35:47;;;;;;;9.53;1.63;;;13.90;1.00;;;;;;5035550;28;20492;-77
2022/09/19 04:38:17;;;;;;;7.07;1.70;;;13.90;1.00;;;;;;5035826;28;20195;-78
2022/09/19 04:40:46;;;;;;;10.80;2.30;;;13.90;3.80;;;;;;5035245;28;20202;-77
2022/09/19 04:43:17;;;;;;;10.97;1.80;;;13.90;33.60;;;;;;5035931;28;20273;-76
2022/09/19 04:45:48;;;;;;;6.27;2.17;;;13.90;1.00;;;;;;5036179;28;20277;-77
2022/09/19 04:48:15;;;;;;;8.03;1.90;;;13.90;1.00;;;;;;5035391;28;20194;-77
2022/09/19 04:50:44;;;;;;;8.07;1.87;;;13.90;1.00;;;;;;5035654;28;20607;-77
2022/09/19 04:53:16;;;;;;;10.03;2.20;;;14.00;1.00;;;;;;5035345;28;20289;-77
2022/09/19 04:55:43;;;;;;;11.50;1.73;;;14.00;1.00;;;;;;5035128;28;20230;-77
2022/09/19 04:58:10;;;;;;;11.47;2.23;;;14.00;1.00;;;;;;5035667;28;20209;-76
2022/09/19 05:00:39;;;;;;;6.57;1.67;;;14.00;1.00;;;;;;5035430;28;20293;-76
2022/09/19 05:03:08;;;;;;;9.80;1.77;;;14.00;1.00;;;;;;5035116;28;20462;-76
2022/09/19 05:05:37;;;;;;;9.10;1.83;;;14.00;1.00;;;;;;5035756;28;20498;-77
2022/09/19 05:08:05;;;;;;;4.80;1.47;;;14.10;1.00;;;;;;5035380;28;20275;-77
2022/09/19 05:10:32;;;;;;;5.80;1.53;;;14.20;1.00;;;;;;5034824;28;20231;-77
2022/09/19 05:13:00;;;;;;;10.17;2.00;;;14.20;73.30;;;;;;5035613;28;20264;-77
2022/09/19 05:15:27;;;;;;;7.23;1.77;;;14.20;99.90;;;;;;5035510;28;20215;-77
2022/09/19 05:17:55;;;;;;;9.20;2.07;;;14.20;1.00;;;;;;5037169;28;20657;-77
2022/09/19 05:20:25;;;;;;;8.83;2.00;;;14.30;1.00;;;;;;5055281;28;20585;-76
2022/09/19 05:22:58;;;;;;;7.53;1.53;;;14.30;99.90;;;;;;5054360;28;20241;-76
2022/09/19 05:25:27;;;;;;;14.03;2.73;;;14.40;1.00;;;;;;5054756;28;20187;-76
2022/09/19 05:27:54;;;;;;;10.53;1.73;;;14.40;1.00;;;;;;5036347;28;20245;-76
2022/09/19 05:30:24;;;;;;;9.63;1.80;;;14.40;1.00;;;;;;5043183;28;20213;-77
2022/09/19 05:32:51;;;;;;;8.03;2.00;;;14.50;99.90;;;;;;5042240;28;20207;-77
2022/09/19 05:35:21;;;;;;;10.00;2.50;;;14.50;1.00;;;;;;5046724;28;20500;-75
2022/09/19 05:37:48;;;;;;;11.37;2.10;;;14.50;99.90;;;;;;5053877;28;20210;-76
2022/09/19 05:40:15;;;;;;;10.10;2.27;;;14.50;1.00;;;;;;5051714;28;20288;-76
2022/09/19 05:42:42;;;;;;;10.93;2.87;;;14.50;1.00;;;;;;5034789;28;20203;-77
2022/09/19 05:45:11;;;;;;;8.13;2.37;;;14.60;1.00;;;;;;5033559;28;20198;-76
2022/09/19 05:47:39;;;;;;;9.80;2.53;;;14.60;1.00;;;;;;5039592;28;20202;-76
2022/09/19 05:50:08;;;;;;;15.17;2.80;;;14.60;1.00;;;;;;5054865;28;20198;-76
2022/09/19 05:55:22;;;;;;;9.20;1.80;;;14.50;1.00;;;;;;5034558;28;20226;-75
2022/09/19 05:57:52;;;;;;;9.23;2.10;;;14.50;99.90;;;;;;5034230;28;20286;-76
2022/09/19 06:00:19;;;;;;;10.27;1.90;;;14.50;98.80;;;;;;5047184;28;20220;-76
2022/09/19 06:02:53;;;;;;;8.40;2.10;;;14.40;1.00;;;;;;5054348;28;20194;-76
2022/09/19 06:05:20;;;;;;;11.60;2.20;;;14.40;1.00;;;;;;5039064;28;20199;-76
2022/09/19 06:07:49;;;;;;;8.93;1.60;;;14.40;99.90;;;;;;5034485;28;20207;-76
2022/09/19 06:10:16;;;;;;;9.40;2.07;;;14.50;99.90;;;;;;5033792;28;20209;-76
2022/09/19 06:12:42;;;;;;;14.30;2.50;;;14.50;1.00;;;;;;5033585;28;20228;-78
2022/09/19 06:15:10;;;;;;;9.03;1.90;;;14.50;99.90;;;;;;5034221;28;20657;-77
2022/09/19 06:17:38;;;;;;;9.53;2.07;;;14.50;1.00;;;;;;5033919;28;20236;-77
2022/09/19 06:20:05;;;;;;;11.90;1.80;;;14.50;1.00;;;;;;5033349;28;20203;-75
2022/09/19 06:22:32;;;;;;;14.13;2.70;;;14.50;99.90;;;;;;5053709;28;20217;-76
2022/09/19 06:25:01;;;;;;;13.50;2.43;;;14.50;35.90;;;;;;5053614;28;20202;-76
2022/09/19 06:27:28;;;;;;;6.40;1.57;;;14.60;1.00;;;;;;5053288;28;20198;-76
2022/09/19 06:29:55;;;;;;;11.00;2.00;;;14.60;1.00;;;;;;5038979;28;20222;-76
2022/09/19 06:32:22;;;;;;;10.20;2.03;;;14.60;99.90;;;;;;5033521;28;20214;-76
2022/09/19 06:34:49;;;;;;;12.47;2.47;;;14.70;1.00;;;;;;5033304;28;20650;-77
2022/09/19 06:37:17;;;;;;;10.17;1.87;;;14.70;99.90;;;;;;5032927;28;20207;-77
2022/09/19 06:39:44;;;;;;;11.67;2.40;;;14.80;1.00;;;;;;5033548;28;20625;-76
2022/09/19 06:42:13;;;;;;;4.77;1.47;;;14.80;99.90;;;;;;5032581;28;20221;-77
2022/09/19 06:44:39;;;;;;;9.20;1.63;;;14.70;99.90;;;;;;5033646;28;20615;-77
2022/09/19 06:47:07;;;;;;;8.37;1.77;;;14.80;1.00;;;;;;5033015;28;20198;-76
2022/09/19 06:49:34;;;;;;;6.93;1.40;;;14.80;1.00;;;;;;5033369;28;20213;-76
2022/09/19 06:52:02;;;;;;;7.00;1.30;;;14.90;1.00;;;;;;5033268;28;20629;-76
2022/09/19 06:54:28;;;;;;;6.40;1.60;;;15.00;99.90;;;;;;5033130;28;20195;-76
2022/09/19 06:56:55;;;;;;;4.90;1.10;;;15.00;1.00;;;;;;5033420;28;20525;-76
2022/09/19 06:59:23;;;;;;;8.77;1.60;;;15.10;1.00;;;;;;5033577;28;20198;-76
2022/09/19 07:01:50;;;;;;;6.10;1.70;;;15.10;78.60;;;;;;5033056;28;20213;-76
2022/09/19 07:04:18;;;;;;;3.80;1.33;;;15.20;1.00;;;;;;5033780;28;20194;-76
2022/09/19 07:06:45;;;;;;;10.77;1.50;;;15.10;99.90;;;;;;5033114;28;20277;-75
2022/09/19 07:09:12;;;;;;;8.37;1.60;;;15.10;1.00;;;;;;5032540;28;20214;-76
2022/09/19 07:11:39;;;;;;;10.80;1.80;;;15.00;1.00;;;;;;5033203;28;20210;-76
2022/09/19 07:14:06;;;;;;;7.63;1.70;;;15.00;99.90;;;;;;5033378;28;20199;-76
2022/09/19 07:16:34;;;;;;;13.73;1.80;;;15.00;1.00;;;;;;5032438;28;20230;-76
2022/09/19 07:19:01;;;;;;;10.93;2.13;;;14.90;99.90;;;;;;5033001;28;20233;-77
2022/09/19 07:21:28;;;;;;;5.33;1.57;;;14.90;99.90;;;;;;5033324;28;20205;-77
2022/09/19 07:23:55;;;;;;;8.00;1.80;;;14.90;1.00;;;;;;5032732;28;20591;-76
2022/09/19 07:26:22;;;;;;;6.77;1.70;;;14.80;1.00;;;;;;5033403;28;20304;-76
2022/09/19 07:28:49;;;;;;;8.30;1.80;;;14.70;1.00;;;;;;5033104;28;20253;-76
2022/09/19 07:31:16;;;;;;;7.13;1.73;;;14.70;10.20;;;;;;5032625;28;20202;-77
2022/09/19 07:33:45;;;;;;;7.57;2.00;;;14.70;37.80;;;;;;5033162;28;20274;-76
2022/09/19 07:36:11;;;;;;;10.77;2.37;;;14.70;85.50;;;;;;5032930;28;20360;-77
2022/09/19 07:38:38;;;;;;;11.17;1.70;;;14.70;73.20;;;;;;5033229;28;20209;-76
2022/09/19 07:41:06;;;;;;;5.07;1.40;;;14.70;1.00;;;;;;5033002;28;20209;-76
2022/09/19 07:43:33;;;;;;;7.80;1.70;;;14.60;1.00;;;;;;5032601;28;20205;-76
2022/09/19 07:46:00;;;;;;;8.83;1.73;;;14.70;1.00;;;;;;5035415;28;20277;-76
2022/09/19 07:48:26;;;;;;;10.57;2.17;;;14.60;25.90;;;;;;5044446;28;20324;-76
2022/09/19 07:50:57;;;;;;;8.17;1.70;;;14.60;86.10;;;;;;5036347;28;20212;-77
2022/09/19 07:53:24;;;;;;;9.47;2.17;;;14.60;99.90;;;;;;5037255;28;20218;-77
2022/09/19 07:55:52;;;;;;;7.27;1.73;;;14.50;99.90;;;;;;5036818;28;20225;-77
2022/09/19 07:58:20;;;;;;;9.97;2.23;;;14.50;99.90;;;;;;5036145;28;20202;-76
2022/09/19 08:00:48;;;;;;;9.40;2.40;;;14.60;99.90;;;;;;5036826;28;20203;-76
2022/09/19 08:03:16;;;;;;;15.17;2.10;;;14.60;99.90;;;;;;5036715;28;20201;-75
2022/09/19 08:05:44;;;;;;;13.20;2.30;;;14.60;99.90;;;;;;5036056;28;20190;-76
2022/09/19 08:08:14;;;;;;;10.53;2.20;;;14.60;99.90;;;;;;5036738;28;20191;-77
2022/09/19 08:10:42;;;;;;;5.87;1.33;;;14.60;42.50;;;;;;5036433;28;20205;-75
2022/09/19 08:13:10;;;;;;;8.50;1.87;;;14.60;76.50;;;;;;5035358;28;20618;-77
2022/09/19 08:15:38;;;;;;;7.90;1.70;;;14.60;92.60;;;;;;5036697;28;20214;-77
2022/09/19 08:18:07;;;;;;;9.27;2.03;;;14.60;99.90;;;;;;5036099;28;20233;-76
2022/09/19 08:20:36;;;;;;;6.27;1.77;;;14.60;99.90;;;;;;5035637;28;20278;-77
2022/09/19 08:23:04;;;;;;;4.80;1.37;;;14.60;99.90;;;;;;5036638;28;20237;-77
2022/09/19 08:25:35;;;;;;;10.83;2.33;;;14.60;99.90;;;;;;5036222;28;20205;-77
2022/09/19 08:28:03;;;;;;;7.07;1.80;;;14.60;99.90;;;;;;5036185;28;20231;-78
2022/09/19 08:30:31;;;;;;;8.93;2.10;;;14.70;99.90;;;;;;5035895;28;20203;-77
2022/09/19 08:33:00;;;;;;;9.50;2.27;;;14.90;99.90;;;;;;5035629;28;20205;-77
2022/09/19 08:35:29;;;;;;;10.77;2.43;;;15.00;99.90;;;;;;5035807;28;20198;-79
2022/09/19 08:37:57;;;;;;;9.23;1.77;;;15.10;99.90;;;;;;5036016;28;20241;-78
2022/09/19 08:40:26;;;;;;;8.00;2.17;;;15.30;99.90;;;;;;5035184;28;20221;-77
2022/09/19 08:43:08;;;;;;;11.10;2.40;;;15.50;1.00;;;;;;5036182;28;20268;-77
2022/09/19 08:45:49;;;;;;;13.98;2.33;;;15.70;1.00;;;;;;5042017;28;20212;-77
2022/09/19 08:48:21;;;;;;;9.20;2.08;;;15.70;1.00;;;;;;5043051;28;20217;-78
2022/09/19 08:50:59;;;;;;;6.38;1.60;;;15.70;1.00;;;;;;5041182;28;20603;-76
2022/09/19 08:53:32;;;;;;;11.17;1.90;;;15.60;1.00;;;;;;5036051;28;20201;-77
2022/09/19 08:56:01;;;;;;;7.97;1.63;;;15.60;1.00;;;;;;5035046;28;20645;-77
2022/09/19 08:58:34;;;;;;;7.97;1.77;;;15.70;1.00;;;;;;5035326;28;20207;-77
2022/09/19 09:01:05;;;;;;;4.20;1.05;;;15.60;99.90;;;;;;5034252;28;20654;-77
2022/09/19 09:03:42;;;;;;;4.25;1.77;;;15.50;1.00;;;;;;5035602;28;20542;-78
2022/09/19 09:06:23;;;;;;;6.10;1.23;;;15.50;1.00;;;;;;5035183;28;20258;-79
2022/09/19 09:09:01;;;;;;;7.57;1.70;;;15.30;33.40;;;;;;5034809;28;20198;-78
2022/09/19 09:11:38;;;;;;;8.68;1.80;;;15.20;1.00;;;;;;5035293;28;20210;-78
2022/09/19 09:14:20;;;;;;;3.85;1.08;;;15.10;1.00;;;;;;5035550;28;20285;-78
2022/09/19 09:17:01;;;;;;;5.93;1.43;;;15.00;67.80;;;;;;5034505;28;20242;-78
2022/09/19 09:19:47;;;;;;;6.95;1.52;;;14.90;1.00;;;;;;5035283;28;20206;-77
2022/09/19 09:22:24;;;;;;;7.17;1.53;;;14.80;1.00;;;;;;5037404;28;20197;-77
2022/09/19 09:25:00;;;;;;;9.33;1.70;;;14.80;1.00;;;;;;5055056;28;20202;-77
2022/09/19 09:27:35;;;;;;;9.73;1.40;;;14.70;1.00;;;;;;5054853;28;20198;-77
2022/09/19 09:30:12;;;;;;;8.87;1.50;;;14.70;98.00;;;;;;5052863;28;20237;-78
2022/09/19 09:32:43;;;;;;;6.60;1.40;;;14.70;99.90;;;;;;5054623;28;20474;-77
2022/09/19 09:35:26;;;;;;;11.60;1.93;;;14.70;99.90;;;;;;5054817;28;20200;-77
2022/09/19 09:38:00;;;;;;;9.03;1.67;;;14.70;99.90;;;;;;5034814;28;20207;-77
2022/09/19 09:43:27;;;;;;;7.13;1.80;;;14.90;99.90;;;;;;5034163;28;20205;-77
2022/09/19 09:45:59;;;;;;;6.80;1.70;;;15.00;96.70;;;;;;5034522;28;20199;-77
2022/09/19 09:48:31;;;;;;;8.77;1.53;;;15.10;94.80;;;;;;5034523;28;20214;-77
2022/09/19 09:51:13;;;;;;;6.90;1.67;;;15.10;97.40;;;;;;5033978;28;20209;-78
2022/09/19 09:53:56;;;;;;;4.50;1.25;;;15.20;99.90;;;;;;5034710;28;20201;-78
2022/09/19 09:56:29;;;;;;;5.20;1.23;;;15.20;99.90;;;;;;5034322;28;20506;-77
2022/09/19 10:03:33;;;;;;;5.80;1.27;;;15.20;1.00;;;;;;5033624;28;20229;-78
2022/09/19 10:04:53;;;;;;;7.43;1.00;;;15.40;99.90;;;;;;5033495;28;20210;-79
2022/09/19 10:07:30;;;;;;;6.63;2.17;;;15.60;1.00;;;;;;5034463;28;20189;-79
2022/09/19 10:10:01;;;;;;;5.47;1.30;;;15.70;99.90;;;;;;5033584;28;20207;-78
2022/09/19 10:12:32;;;;;;;3.60;1.02;;;16.00;1.00;;;;;;5033496;28;20203;-79
2022/09/19 10:15:05;;;;;;;4.40;1.52;;;16.20;76.10;;;;;;5033600;28;20207;-80
2022/09/19 10:17:37;;;;;;;8.13;1.35;;;16.60;1.00;;;;;;5033999;28;20524;-79
2022/09/19 10:20:11;;;;;;;8.85;1.80;;;16.90;33.80;;;;;;5033230;28;20301;-78
2022/09/19 10:22:37;;;;;;;8.35;1.50;;;16.80;1.00;;;;;;5038585;28;20194;-78
2022/09/19 10:25:10;;;;;;;6.63;1.80;;;16.70;1.00;;;;;;5053238;28;20212;-79
2022/09/19 10:27:41;;;;;;;4.68;1.38;;;16.60;13.90;;;;;;5053754;28;20198;-78
2022/09/19 10:30:15;;;;;;;7.40;1.35;;;16.70;1.00;;;;;;5052912;28;20194;-77
2022/09/19 10:32:45;;;;;;;4.50;1.20;;;16.80;99.90;;;;;;5033405;28;20218;-79
2022/09/19 10:35:32;;;;;;;4.93;1.02;;;16.90;1.00;;;;;;5033692;28;20202;-79
2022/09/19 10:38:00;;;;;;;3.90;0.75;;;16.80;99.90;;;;;;5033621;28;20512;-77
2022/09/19 10:40:28;;;;;;;3.65;0.85;;;16.70;99.90;;;;;;5032760;28;20199;-78
2022/09/19 10:42:56;;;;;;;6.30;1.30;;;16.70;1.00;;;;;;5033454;28;20302;-78
2022/09/19 10:45:26;;;;;;;4.70;0.88;;;16.60;1.00;;;;;;5033401;28;20202;-78
2022/09/19 10:48:00;;;;;;;6.20;1.02;;;16.70;1.00;;;;;;5032868;28;20199;-79
2022/09/19 10:50:29;;;;;;;7.10;1.45;;;16.70;1.00;;;;;;5033394;28;20225;-78
2022/09/19 10:53:01;;;;;;;3.80;1.10;;;16.90;1.00;;;;;;5033580;28;20230;-78
2022/09/19 10:55:32;;;;;;;3.53;1.25;;;17.20;1.00;;;;;;5032288;28;20221;-79
2022/09/19 10:58:03;;;;;;;3.70;1.23;;;17.30;1.00;;;;;;5033048;28;20673;-79
2022/09/19 11:00:32;;;;;;;5.45;1.50;;;17.40;99.90;;;;;;5032603;28;20575;-78
2022/09/19 11:03:05;;;;;;;4.93;1.20;;;17.50;99.90;;;;;;5032992;28;20625;-78
2022/09/19 11:05:36;;;;;;;8.10;1.10;;;17.50;99.90;;;;;;5033359;28;20207;-78
2022/09/19 11:08:08;;;;;;;6.57;1.27;;;17.60;1.00;;;;;;5032657;28;20191;-78
2022/09/19 11:10:41;;;;;;;4.47;1.13;;;17.70;1.00;;;;;;5032832;28;20225;-78
2022/09/19 11:13:12;;;;;;;2.75;1.00;;;17.90;1.00;;;;;;5033312;28;20202;-78
2022/09/19 11:15:55;;;;;;;5.75;1.17;;;18.10;99.90;;;;;;5032791;28;20199;-78
2022/09/19 11:18:30;;;;;;;5.18;1.25;;;18.20;99.90;;;;;;5032941;28;20284;-78
2022/09/19 11:21:08;;;;;;;4.05;1.08;;;18.40;99.90;;;;;;5032886;28;20233;-78
2022/09/19 11:24:15;;;;;;;2.67;0.90;;;18.40;99.90;;;;;;5031900;28;20202;-78
2022/09/19 11:27:06;;;;;;;7.78;1.13;;;18.40;99.90;;;;;;5033200;28;20198;-78
2022/09/19 11:29:45;;;;;;;2.80;1.08;;;18.50;99.90;;;;;;5032305;28;20213;-79
2022/09/19 11:32:22;;;;;;;3.03;1.10;;;18.50;99.90;;;;;;5033396;28;20198;-78
2022/09/19 11:34:59;;;;;;;4.85;1.27;;;18.70;99.90;;;;;;5032776;28;20500;-79
2022/09/19 11:37:41;;;;;;;4.50;1.60;;;18.70;99.90;;;;;;5032479;28;20218;-80
2022/09/19 11:40:27;;;;;;;6.15;1.35;;;18.60;1.00;;;;;;5032882;28;20204;-80
2022/09/19 11:43:08;;;;;;;6.07;1.30;;;18.20;1.00;;;;;;5032140;28;20199;-78
2022/09/19 11:45:51;;;;;;;6.30;1.33;;;17.80;94.30;;;;;;5033173;28;20203;-80
2022/09/19 11:48:44;;;;;;;7.97;1.40;;;17.50;99.90;;;;;;5032944;28;20206;-80
2022/09/19 11:51:24;;;;;;;5.97;1.27;;;17.10;99.90;;;;;;5031878;28;20215;-80
2022/09/19 11:54:08;;;;;;;5.18;1.65;;;16.90;99.90;;;;;;5033056;28;20199;-80
2022/09/19 11:56:50;;;;;;;6.93;1.60;;;16.70;1.00;;;;;;5031912;28;20234;-79
2022/09/19 11:59:32;;;;;;;9.23;1.83;;;16.70;99.90;;;;;;5032899;28;20195;-79
2022/09/19 12:02:14;;;;;;;5.35;1.23;;;16.70;99.90;;;;;;5032971;28;20205;-77
2022/09/19 12:04:48;;;;;;;9.13;1.85;;;16.80;1.00;;;;;;5032300;28;20202;-79
2022/09/19 12:07:30;;;;;;;7.45;1.83;;;16.90;1.00;;;;;;5032625;28;20205;-79
2022/09/19 12:10:01;;;;;;;8.00;1.50;;;16.80;1.00;;;;;;5035609;28;20515;-80
2022/09/19 12:12:36;;;;;;;7.25;1.50;;;16.70;1.00;;;;;;5052085;28;20201;-80
2022/09/19 12:15:19;;;;;;;6.38;1.40;;;16.50;1.00;;;;;;5047130;28;20202;-79
2022/09/19 12:17:53;;;;;;;5.30;1.48;;;16.40;1.00;;;;;;5031938;28;20246;-80
2022/09/19 12:20:23;;;;;;;6.10;1.95;;;16.50;1.00;;;;;;5032678;28;20203;-79
2022/09/19 12:22:55;;;;;;;5.45;1.27;;;16.50;1.00;;;;;;5032305;28;20232;-79
2022/09/19 12:25:24;;;;;;;3.65;1.20;;;16.60;57.60;;;;;;5031672;28;20217;-79
2022/09/19 12:27:55;;;;;;;4.82;1.52;;;16.80;79.10;;;;;;5031895;28;20194;-79
2022/09/19 12:30:23;;;;;;;8.33;1.60;;;17.00;58.20;;;;;;5032672;28;20207;-79
2022/09/19 12:32:56;;;;;;;6.40;1.33;;;17.10;25.30;;;;;;5031611;28;20252;-78
2022/09/19 12:35:30;;;;;;;10.43;2.15;;;17.20;16.20;;;;;;5034943;28;20199;-79
2022/09/19 12:38:08;;;;;;;6.50;1.10;;;17.40;1.00;;;;;;5035596;28;20230;-79
2022/09/19 12:40:45;;;;;;;3.92;1.08;;;17.50;99.90;;;;;;5035418;28;20284;-77
2022/09/19 12:43:23;;;;;;;7.57;1.33;;;17.60;1.00;;;;;;5035941;28;20567;-79
2022/09/19 12:45:58;;;;;;;5.13;1.27;;;17.60;1.00;;;;;;5035261;28;20286;-78
2022/09/19 12:48:36;;;;;;;4.85;1.30;;;17.50;99.90;;;;;;5035764;28;20218;-79
2022/09/19 12:51:07;;;;;;;7.15;1.60;;;17.30;99.90;;;;;;5035865;28;20462;-78
2022/09/19 12:53:41;;;;;;;6.95;1.75;;;17.20;99.90;;;;;;5035431;28;20214;-78
2022/09/19 12:56:13;;;;;;;2.83;1.30;;;17.10;1.00;;;;;;5035491;28;20237;-78
2022/09/19 12:58:52;;;;;;;11.45;1.80;;;17.00;99.90;;;;;;5053608;28;20655;-79
2022/09/19 13:01:24;;;;;;;6.35;1.42;;;17.00;1.00;;;;;;5049418;28;20337;-78
2022/09/19 13:03:58;;;;;;;6.03;1.70;;;16.90;99.90;;;;;;5035791;28;20295;-78
2022/09/19 13:06:30;;;;;;;4.88;1.27;;;17.00;99.90;;;;;;5035568;28;20202;-79
2022/09/19 13:09:05;;;;;;;5.32;1.13;;;16.90;1.00;;;;;;5034953;28;20202;-79
2022/09/19 13:11:39;;;;;;;8.68;1.77;;;16.90;1.00;;;;;;5035217;28;20301;-79
2022/09/19 13:14:14;;;;;;;7.32;1.63;;;16.80;1.00;;;;;;5034851;28;20238;-78
2022/09/19 13:23:30;;;;;;;12.57;2.00;;;16.80;99.90;;;;;;5034852;28;20206;-78
2022/09/19 13:25:12;;;;;;;7.93;2.13;;;16.20;99.90;;;;;;5015453;28;20666;-78
2022/09/19 13:27:39;;;;;;;5.93;1.60;;;16.00;24.20;;;;;;5015283;28;20207;-78
2022/09/19 13:30:48;;;;;;;6.47;1.47;;;15.90;1.00;;;;;;5014758;28;20194;-78